4G2 weather

Hamburg Inc Airport
Hamburg, New York, United States

Public forecast

Using degrees Fahrenheit for public forecast. Weather courtesy of forecast.io.

Closest aviation weather report (METAR) to Hamburg Inc Airport

Closest report is Buffalo Niagara International Airport, 16.5 nm (30.5 km) NNE. Retrieved 2019/10/17 23:54 UTC (27 minutes ago):

KBUF 172354Z 31012G26KT 10SM BKN018 OVC030 07/04 A2976 RMK AO2 PK WND 31026/2348 SLP083 60000 T00670039 10078 20067 51023

Closest aviation forecast (TAF) to Hamburg Inc Airport

Closest forecast is Buffalo Niagara International Airport, 16.5 nm (30.5 km) NNE. Retrieved 2019-10-18 00:27 UTC (0 seconds ago):

TAF KBUF 172324Z 1800/1824 31014G22KT P6SM VCSH OVC015 FM180300 30012KT P6SM OVC015 FM181500 29010KT P6SM BKN025 FM182100 26006KT P6SM SCT040